sensor_id;sensor_type;location;lat;lon;timestamp;temperature;humidity
80274;DHT22;69576;51.902;-8.462;2023-07-29T00:02:12;19.00;66.40
80274;DHT22;69576;51.902;-8.462;2023-07-29T00:04:40;19.00;66.50
80274;DHT22;69576;51.902;-8.462;2023-07-29T00:07:06;19.00;66.60
80274;DHT22;69576;51.902;-8.462;2023-07-29T00:09:32;19.00;66.50
80274;DHT22;69576;51.902;-8.462;2023-07-29T00:11:58;19.00;66.70
80274;DHT22;69576;51.902;-8.462;2023-07-29T00:14:26;19.00;66.60
80274;DHT22;69576;51.902;-8.462;2023-07-29T00:16:51;19.00;66.70
80274;DHT22;69576;51.902;-8.462;2023-07-29T00:19:17;19.00;66.50
80274;DHT22;69576;51.902;-8.462;2023-07-29T00:21:43;18.90;66.60
80274;DHT22;69576;51.902;-8.462;2023-07-29T00:24:09;18.90;66.50
80274;DHT22;69576;51.902;-8.462;2023-07-29T00:26:34;18.90;66.70
80274;DHT22;69576;51.902;-8.462;2023-07-29T00:29:00;19.00;66.50
80274;DHT22;69576;51.902;-8.462;2023-07-29T00:31:26;18.90;66.50
80274;DHT22;69576;51.902;-8.462;2023-07-29T00:33:54;18.90;66.30
80274;DHT22;69576;51.902;-8.462;2023-07-29T00:36:20;18.90;66.50
80274;DHT22;69576;51.902;-8.462;2023-07-29T00:38:46;18.90;66.40
80274;DHT22;69576;51.902;-8.462;2023-07-29T00:41:12;18.90;66.30
80274;DHT22;69576;51.902;-8.462;2023-07-29T00:43:41;18.90;66.30
80274;DHT22;69576;51.902;-8.462;2023-07-29T00:46:11;18.90;66.40
80274;DHT22;69576;51.902;-8.462;2023-07-29T00:48:39;18.90;66.50
80274;DHT22;69576;51.902;-8.462;2023-07-29T00:51:05;18.90;66.50
80274;DHT22;69576;51.902;-8.462;2023-07-29T00:53:31;18.90;66.30
80274;DHT22;69576;51.902;-8.462;2023-07-29T00:55:57;18.90;66.50
80274;DHT22;69576;51.902;-8.462;2023-07-29T00:58:27;18.90;66.60
80274;DHT22;69576;51.902;-8.462;2023-07-29T01:00:53;18.90;66.80
80274;DHT22;69576;51.902;-8.462;2023-07-29T01:03:20;18.90;66.40
80274;DHT22;69576;51.902;-8.462;2023-07-29T01:11:48;18.90;66.60
80274;DHT22;69576;51.902;-8.462;2023-07-29T01:14:36;18.80;66.80
80274;DHT22;69576;51.902;-8.462;2023-07-29T01:17:07;18.80;66.70
80274;DHT22;69576;51.902;-8.462;2023-07-29T01:22:11;18.80;66.70
80274;DHT22;69576;51.902;-8.462;2023-07-29T01:24:38;18.80;66.70
80274;DHT22;69576;51.902;-8.462;2023-07-29T01:27:04;18.80;66.70
80274;DHT22;69576;51.902;-8.462;2023-07-29T01:29:31;18.80;66.50
80274;DHT22;69576;51.902;-8.462;2023-07-29T01:32:04;18.80;66.40
80274;DHT22;69576;51.902;-8.462;2023-07-29T01:37:41;18.70;66.90
80274;DHT22;69576;51.902;-8.462;2023-07-29T01:40:10;18.80;66.40
80274;DHT22;69576;51.902;-8.462;2023-07-29T01:42:36;18.70;66.20
80274;DHT22;69576;51.902;-8.462;2023-07-29T01:45:02;18.70;66.20
80274;DHT22;69576;51.902;-8.462;2023-07-29T01:47:29;18.70;66.50
80274;DHT22;69576;51.902;-8.462;2023-07-29T01:49:57;18.70;66.40
80274;DHT22;69576;51.902;-8.462;2023-07-29T01:52:23;18.60;66.10
80274;DHT22;69576;51.902;-8.462;2023-07-29T01:54:50;18.60;66.10
80274;DHT22;69576;51.902;-8.462;2023-07-29T01:57:16;18.60;66.20
80274;DHT22;69576;51.902;-8.462;2023-07-29T01:59:42;18.60;66.40
80274;DHT22;69576;51.902;-8.462;2023-07-29T02:02:08;18.60;66.20
80274;DHT22;69576;51.902;-8.462;2023-07-29T02:04:33;18.60;66.20
80274;DHT22;69576;51.902;-8.462;2023-07-29T02:06:59;18.60;66.40
80274;DHT22;69576;51.902;-8.462;2023-07-29T02:09:27;18.60;66.60
80274;DHT22;69576;51.902;-8.462;2023-07-29T02:11:55;18.50;66.20
80274;DHT22;69576;51.902;-8.462;2023-07-29T02:14:21;18.50;66.50
80274;DHT22;69576;51.902;-8.462;2023-07-29T02:16:47;18.50;66.10
80274;DHT22;69576;51.902;-8.462;2023-07-29T02:19:12;18.50;66.20
80274;DHT22;69576;51.902;-8.462;2023-07-29T02:21:38;18.50;66.10
80274;DHT22;69576;51.902;-8.462;2023-07-29T02:24:08;18.50;66.10
80274;DHT22;69576;51.902;-8.462;2023-07-29T02:26:34;18.50;66.20
80274;DHT22;69576;51.902;-8.462;2023-07-29T02:29:02;18.50;66.60
80274;DHT22;69576;51.902;-8.462;2023-07-29T02:31:30;18.50;66.30
80274;DHT22;69576;51.902;-8.462;2023-07-29T02:33:56;18.50;66.60
80274;DHT22;69576;51.902;-8.462;2023-07-29T02:36:22;18.50;66.50
80274;DHT22;69576;51.902;-8.462;2023-07-29T02:38:48;18.40;66.30
80274;DHT22;69576;51.902;-8.462;2023-07-29T02:41:13;18.50;66.10
80274;DHT22;69576;51.902;-8.462;2023-07-29T02:43:42;18.50;66.30
80274;DHT22;69576;51.902;-8.462;2023-07-29T02:46:10;18.40;66.40
80274;DHT22;69576;51.902;-8.462;2023-07-29T02:48:38;18.40;66.10
80274;DHT22;69576;51.902;-8.462;2023-07-29T02:51:04;18.40;66.10
80274;DHT22;69576;51.902;-8.462;2023-07-29T02:53:30;18.40;66.20
80274;DHT22;69576;51.902;-8.462;2023-07-29T02:55:56;18.40;66.30
80274;DHT22;69576;51.902;-8.462;2023-07-29T02:58:24;18.40;66.20
80274;DHT22;69576;51.902;-8.462;2023-07-29T03:00:51;18.40;66.20
80274;DHT22;69576;51.902;-8.462;2023-07-29T03:03:17;18.40;66.30
80274;DHT22;69576;51.902;-8.462;2023-07-29T03:05:47;18.40;66.10
80274;DHT22;69576;51.902;-8.462;2023-07-29T03:08:17;18.30;66.30
80274;DHT22;69576;51.902;-8.462;2023-07-29T03:10:43;18.40;66.40
80274;DHT22;69576;51.902;-8.462;2023-07-29T03:13:08;18.30;66.20
80274;DHT22;69576;51.902;-8.462;2023-07-29T03:15:34;18.30;66.40
80274;DHT22;69576;51.902;-8.462;2023-07-29T03:18:00;18.30;66.50
80274;DHT22;69576;51.902;-8.462;2023-07-29T03:20:28;18.30;66.50
80274;DHT22;69576;51.902;-8.462;2023-07-29T03:22:54;18.30;66.80
80274;DHT22;69576;51.902;-8.462;2023-07-29T03:25:20;18.30;66.60
80274;DHT22;69576;51.902;-8.462;2023-07-29T03:27:48;18.30;66.60
80274;DHT22;69576;51.902;-8.462;2023-07-29T03:30:19;18.30;66.60
80274;DHT22;69576;51.902;-8.462;2023-07-29T03:32:45;18.30;66.80
80274;DHT22;69576;51.902;-8.462;2023-07-29T03:35:11;18.30;66.70
80274;DHT22;69576;51.902;-8.462;2023-07-29T03:37:40;18.30;66.60
80274;DHT22;69576;51.902;-8.462;2023-07-29T03:40:06;18.30;66.70
80274;DHT22;69576;51.902;-8.462;2023-07-29T03:42:33;18.30;66.30
80274;DHT22;69576;51.902;-8.462;2023-07-29T03:45:03;18.30;66.40
80274;DHT22;69576;51.902;-8.462;2023-07-29T03:47:29;18.30;66.30
80274;DHT22;69576;51.902;-8.462;2023-07-29T03:49:55;18.30;66.20
80274;DHT22;69576;51.902;-8.462;2023-07-29T03:52:23;18.30;66.60
80274;DHT22;69576;51.902;-8.462;2023-07-29T03:54:51;18.30;66.50
80274;DHT22;69576;51.902;-8.462;2023-07-29T03:57:17;18.30;66.10
80274;DHT22;69576;51.902;-8.462;2023-07-29T03:59:42;18.30;66.20
80274;DHT22;69576;51.902;-8.462;2023-07-29T04:02:08;18.30;66.50
80274;DHT22;69576;51.902;-8.462;2023-07-29T04:04:34;18.30;66.50
80274;DHT22;69576;51.902;-8.462;2023-07-29T04:07:00;18.30;66.20
80274;DHT22;69576;51.902;-8.462;2023-07-29T04:09:26;18.30;66.60
80274;DHT22;69576;51.902;-8.462;2023-07-29T04:11:52;18.30;66.40
80274;DHT22;69576;51.902;-8.462;2023-07-29T04:14:20;18.30;66.50
80274;DHT22;69576;51.902;-8.462;2023-07-29T04:16:46;18.20;66.50
80274;DHT22;69576;51.902;-8.462;2023-07-29T04:19:11;18.20;66.50
80274;DHT22;69576;51.902;-8.462;2023-07-29T04:21:39;18.20;66.50
80274;DHT22;69576;51.902;-8.462;2023-07-29T04:24:05;18.20;66.40
80274;DHT22;69576;51.902;-8.462;2023-07-29T04:26:31;18.30;66.60
80274;DHT22;69576;51.902;-8.462;2023-07-29T04:28:56;18.20;66.20
80274;DHT22;69576;51.902;-8.462;2023-07-29T04:31:24;18.20;66.10
80274;DHT22;69576;51.902;-8.462;2023-07-29T04:33:52;18.20;66.10
80274;DHT22;69576;51.902;-8.462;2023-07-29T04:36:20;18.20;66.10
80274;DHT22;69576;51.902;-8.462;2023-07-29T04:38:45;18.20;66.10
80274;DHT22;69576;51.902;-8.462;2023-07-29T04:41:11;18.20;66.20
80274;DHT22;69576;51.902;-8.462;2023-07-29T04:43:37;18.20;66.40
80274;DHT22;69576;51.902;-8.462;2023-07-29T04:46:06;18.10;66.20
80274;DHT22;69576;51.902;-8.462;2023-07-29T04:48:35;18.10;66.60
80274;DHT22;69576;51.902;-8.462;2023-07-29T04:51:00;18.10;66.60
80274;DHT22;69576;51.902;-8.462;2023-07-29T04:53:26;18.10;66.50
80274;DHT22;69576;51.902;-8.462;2023-07-29T04:55:52;18.10;66.50
80274;DHT22;69576;51.902;-8.462;2023-07-29T04:58:20;18.10;66.20
80274;DHT22;69576;51.902;-8.462;2023-07-29T05:00:48;18.10;66.20
80274;DHT22;69576;51.902;-8.462;2023-07-29T05:03:16;18.10;66.40
80274;DHT22;69576;51.902;-8.462;2023-07-29T05:05:42;18.10;66.40
80274;DHT22;69576;51.902;-8.462;2023-07-29T05:08:10;18.10;66.50
80274;DHT22;69576;51.902;-8.462;2023-07-29T05:10:38;18.10;66.60
80274;DHT22;69576;51.902;-8.462;2023-07-29T05:13:04;18.10;66.20
80274;DHT22;69576;51.902;-8.462;2023-07-29T05:15:30;18.10;66.30
80274;DHT22;69576;51.902;-8.462;2023-07-29T05:17:58;18.10;66.30
80274;DHT22;69576;51.902;-8.462;2023-07-29T05:20:24;18.10;66.30
80274;DHT22;69576;51.902;-8.462;2023-07-29T05:22:50;18.10;66.30
80274;DHT22;69576;51.902;-8.462;2023-07-29T05:25:16;18.10;66.40
80274;DHT22;69576;51.902;-8.462;2023-07-29T05:27:42;18.10;66.50
80274;DHT22;69576;51.902;-8.462;2023-07-29T05:30:10;18.10;66.50
80274;DHT22;69576;51.902;-8.462;2023-07-29T05:32:36;18.10;66.50
80274;DHT22;69576;51.902;-8.462;2023-07-29T05:35:02;18.10;66.20
80274;DHT22;69576;51.902;-8.462;2023-07-29T05:37:28;18.00;66.20
80274;DHT22;69576;51.902;-8.462;2023-07-29T05:39:53;18.10;66.40
80274;DHT22;69576;51.902;-8.462;2023-07-29T05:42:22;18.00;66.20
80274;DHT22;69576;51.902;-8.462;2023-07-29T05:44:50;18.00;66.20
80274;DHT22;69576;51.902;-8.462;2023-07-29T05:47:18;18.00;66.50
80274;DHT22;69576;51.902;-8.462;2023-07-29T05:49:44;18.10;66.30
80274;DHT22;69576;51.902;-8.462;2023-07-29T05:52:10;18.00;66.30
80274;DHT22;69576;51.902;-8.462;2023-07-29T05:54:35;18.00;66.20
80274;DHT22;69576;51.902;-8.462;2023-07-29T05:57:01;18.10;66.20
80274;DHT22;69576;51.902;-8.462;2023-07-29T05:59:27;18.10;66.40
80274;DHT22;69576;51.902;-8.462;2023-07-29T06:01:55;18.10;66.40
80274;DHT22;69576;51.902;-8.462;2023-07-29T06:04:20;18.10;66.20
80274;DHT22;69576;51.902;-8.462;2023-07-29T06:06:46;18.10;66.50
80274;DHT22;69576;51.902;-8.462;2023-07-29T06:09:19;18.10;66.70
80274;DHT22;69576;51.902;-8.462;2023-07-29T06:11:44;18.10;66.80
80274;DHT22;69576;51.902;-8.462;2023-07-29T06:14:12;18.20;66.90
80274;DHT22;69576;51.902;-8.462;2023-07-29T06:16:41;18.20;66.70
80274;DHT22;69576;51.902;-8.462;2023-07-29T06:19:09;18.20;67.00
80274;DHT22;69576;51.902;-8.462;2023-07-29T06:21:37;18.30;66.90
80274;DHT22;69576;51.902;-8.462;2023-07-29T06:24:03;18.30;66.50
80274;DHT22;69576;51.902;-8.462;2023-07-29T06:26:32;18.30;66.60
80274;DHT22;69576;51.902;-8.462;2023-07-29T06:28:58;18.30;66.40
80274;DHT22;69576;51.902;-8.462;2023-07-29T06:31:26;18.30;66.40
80274;DHT22;69576;51.902;-8.462;2023-07-29T06:33:52;18.40;66.60
80274;DHT22;69576;51.902;-8.462;2023-07-29T06:36:17;18.40;66.20
80274;DHT22;69576;51.902;-8.462;2023-07-29T06:38:43;18.40;66.50
80274;DHT22;69576;51.902;-8.462;2023-07-29T06:41:09;18.50;66.90
80274;DHT22;69576;51.902;-8.462;2023-07-29T06:43:35;18.50;66.70
80274;DHT22;69576;51.902;-8.462;2023-07-29T06:46:00;18.60;66.40
80274;DHT22;69576;51.902;-8.462;2023-07-29T06:48:26;18.60;66.40
80274;DHT22;69576;51.902;-8.462;2023-07-29T06:50:52;18.60;66.50
80274;DHT22;69576;51.902;-8.462;2023-07-29T06:53:20;18.60;66.40
80274;DHT22;69576;51.902;-8.462;2023-07-29T06:55:46;18.70;66.20
80274;DHT22;69576;51.902;-8.462;2023-07-29T06:58:11;18.70;66.20
80274;DHT22;69576;51.902;-8.462;2023-07-29T07:00:37;18.70;66.40
80274;DHT22;69576;51.902;-8.462;2023-07-29T07:03:03;18.70;66.30
80274;DHT22;69576;51.902;-8.462;2023-07-29T07:05:29;18.70;66.10
80274;DHT22;69576;51.902;-8.462;2023-07-29T07:07:54;18.80;66.10
80274;DHT22;69576;51.902;-8.462;2023-07-29T07:10:23;18.80;66.20
80274;DHT22;69576;51.902;-8.462;2023-07-29T07:12:49;18.80;66.00
80274;DHT22;69576;51.902;-8.462;2023-07-29T07:15:14;18.90;66.10
80274;DHT22;69576;51.902;-8.462;2023-07-29T07:17:40;18.90;65.90
80274;DHT22;69576;51.902;-8.462;2023-07-29T07:20:07;18.90;66.20
80274;DHT22;69576;51.902;-8.462;2023-07-29T07:22:35;19.00;66.10
80274;DHT22;69576;51.902;-8.462;2023-07-29T07:25:01;19.00;66.20
80274;DHT22;69576;51.902;-8.462;2023-07-29T07:27:27;19.00;65.80
80274;DHT22;69576;51.902;-8.462;2023-07-29T07:29:53;19.10;65.70
80274;DHT22;69576;51.902;-8.462;2023-07-29T07:32:21;19.10;66.10
80274;DHT22;69576;51.902;-8.462;2023-07-29T07:34:47;19.10;65.70
80274;DHT22;69576;51.902;-8.462;2023-07-29T07:37:15;19.10;65.90
80274;DHT22;69576;51.902;-8.462;2023-07-29T07:39:41;19.20;65.90
80274;DHT22;69576;51.902;-8.462;2023-07-29T07:42:08;19.20;66.10
80274;DHT22;69576;51.902;-8.462;2023-07-29T07:44:34;19.30;66.00
80274;DHT22;69576;51.902;-8.462;2023-07-29T07:47:02;19.30;66.00
80274;DHT22;69576;51.902;-8.462;2023-07-29T07:49:28;19.40;65.70
80274;DHT22;69576;51.902;-8.462;2023-07-29T07:51:54;19.40;65.70
80274;DHT22;69576;51.902;-8.462;2023-07-29T07:54:19;19.40;65.80
80274;DHT22;69576;51.902;-8.462;2023-07-29T07:56:45;19.50;65.80
80274;DHT22;69576;51.902;-8.462;2023-07-29T07:59:11;19.50;65.70
80274;DHT22;69576;51.902;-8.462;2023-07-29T08:01:39;19.50;65.60
80274;DHT22;69576;51.902;-8.462;2023-07-29T08:04:06;19.50;65.70
80274;DHT22;69576;51.902;-8.462;2023-07-29T08:06:34;19.70;65.50
80274;DHT22;69576;51.902;-8.462;2023-07-29T08:09:04;19.70;65.50
80274;DHT22;69576;51.902;-8.462;2023-07-29T08:11:30;19.80;65.50
80274;DHT22;69576;51.902;-8.462;2023-07-29T08:13:56;19.90;65.20
80274;DHT22;69576;51.902;-8.462;2023-07-29T08:16:22;19.90;64.90
80274;DHT22;69576;51.902;-8.462;2023-07-29T08:18:47;20.00;64.70
80274;DHT22;69576;51.902;-8.462;2023-07-29T08:21:13;20.10;64.40
80274;DHT22;69576;51.902;-8.462;2023-07-29T08:23:39;20.30;64.30
80274;DHT22;69576;51.902;-8.462;2023-07-29T08:26:06;20.60;64.30
80274;DHT22;69576;51.902;-8.462;2023-07-29T08:28:34;21.00;63.90
80274;DHT22;69576;51.902;-8.462;2023-07-29T08:31:00;21.50;63.80
80274;DHT22;69576;51.902;-8.462;2023-07-29T08:33:26;21.90;63.00
80274;DHT22;69576;51.902;-8.462;2023-07-29T08:35:52;22.10;62.50
80274;DHT22;69576;51.902;-8.462;2023-07-29T08:38:20;22.10;61.40
80274;DHT22;69576;51.902;-8.462;2023-07-29T08:41:16;21.90;60.90
80274;DHT22;69576;51.902;-8.462;2023-07-29T08:44:05;21.80;60.90
80274;DHT22;69576;51.902;-8.462;2023-07-29T08:46:35;21.70;60.60
80274;DHT22;69576;51.902;-8.462;2023-07-29T08:49:01;21.50;61.00
80274;DHT22;69576;51.902;-8.462;2023-07-29T08:51:29;21.40;61.10
80274;DHT22;69576;51.902;-8.462;2023-07-29T08:53:56;21.30;61.40
80274;DHT22;69576;51.902;-8.462;2023-07-29T08:56:24;21.20;61.70
80274;DHT22;69576;51.902;-8.462;2023-07-29T08:58:50;21.10;61.90
80274;DHT22;69576;51.902;-8.462;2023-07-29T09:01:18;21.00;62.00
80274;DHT22;69576;51.902;-8.462;2023-07-29T09:03:44;20.90;62.00
80274;DHT22;69576;51.902;-8.462;2023-07-29T09:06:09;20.80;61.20
80274;DHT22;69576;51.902;-8.462;2023-07-29T09:08:36;20.70;60.90
80274;DHT22;69576;51.902;-8.462;2023-07-29T09:11:02;20.60;60.90
80274;DHT22;69576;51.902;-8.462;2023-07-29T09:13:28;20.50;61.00
80274;DHT22;69576;51.902;-8.462;2023-07-29T09:15:55;20.40;60.80
80274;DHT22;69576;51.902;-8.462;2023-07-29T09:18:26;20.30;60.90
80274;DHT22;69576;51.902;-8.462;2023-07-29T09:20:55;20.30;61.00
80274;DHT22;69576;51.902;-8.462;2023-07-29T09:23:26;20.10;61.10
80274;DHT22;69576;51.902;-8.462;2023-07-29T09:26:02;20.20;61.20
80274;DHT22;69576;51.902;-8.462;2023-07-29T09:28:33;20.20;61.10
80274;DHT22;69576;51.902;-8.462;2023-07-29T09:30:59;20.10;61.10
80274;DHT22;69576;51.902;-8.462;2023-07-29T09:33:29;20.10;61.30
80274;DHT22;69576;51.902;-8.462;2023-07-29T09:35:57;20.30;61.60
80274;DHT22;69576;51.902;-8.462;2023-07-29T09:38:29;20.50;61.60
80274;DHT22;69576;51.902;-8.462;2023-07-29T09:40:57;20.60;61.20
80274;DHT22;69576;51.902;-8.462;2023-07-29T09:43:29;20.70;61.00
80274;DHT22;69576;51.902;-8.462;2023-07-29T09:46:02;20.70;60.80
80274;DHT22;69576;51.902;-8.462;2023-07-29T09:48:36;20.70;60.70
80274;DHT22;69576;51.902;-8.462;2023-07-29T09:51:13;20.60;60.70
80274;DHT22;69576;51.902;-8.462;2023-07-29T09:53:51;20.60;60.50
80274;DHT22;69576;51.902;-8.462;2023-07-29T09:56:25;20.60;60.40
80274;DHT22;69576;51.902;-8.462;2023-07-29T09:58:52;20.70;60.60
80274;DHT22;69576;51.902;-8.462;2023-07-29T10:01:20;20.70;60.30
80274;DHT22;69576;51.902;-8.462;2023-07-29T10:03:47;20.90;60.10
80274;DHT22;69576;51.902;-8.462;2023-07-29T10:06:14;21.00;60.00
80274;DHT22;69576;51.902;-8.462;2023-07-29T10:08:40;21.20;60.00
80274;DHT22;69576;51.902;-8.462;2023-07-29T10:11:12;21.40;59.50
80274;DHT22;69576;51.902;-8.462;2023-07-29T10:13:41;21.50;59.30
80274;DHT22;69576;51.902;-8.462;2023-07-29T10:16:06;21.60;58.80
80274;DHT22;69576;51.902;-8.462;2023-07-29T10:18:33;21.70;58.70
80274;DHT22;69576;51.902;-8.462;2023-07-29T10:21:02;22.00;58.30
80274;DHT22;69576;51.902;-8.462;2023-07-29T10:23:34;22.20;57.60
80274;DHT22;69576;51.902;-8.462;2023-07-29T10:26:04;22.50;57.20
80274;DHT22;69576;51.902;-8.462;2023-07-29T10:28:31;22.80;57.20
80274;DHT22;69576;51.902;-8.462;2023-07-29T10:31:01;23.10;57.10
80274;DHT22;69576;51.902;-8.462;2023-07-29T10:33:30;23.20;56.50
80274;DHT22;69576;51.902;-8.462;2023-07-29T10:35:56;23.30;56.20
80274;DHT22;69576;51.902;-8.462;2023-07-29T10:38:23;23.40;56.70
80274;DHT22;69576;51.902;-8.462;2023-07-29T10:40:55;23.60;56.30
80274;DHT22;69576;51.902;-8.462;2023-07-29T10:45:57;23.80;54.70
80274;DHT22;69576;51.902;-8.462;2023-07-29T10:51:52;23.90;54.00
80274;DHT22;69576;51.902;-8.462;2023-07-29T10:54:15;23.90;53.90
80274;DHT22;69576;51.902;-8.462;2023-07-29T10:56:48;24.00;53.90
80274;DHT22;69576;51.902;-8.462;2023-07-29T11:01:57;24.10;53.60
80274;DHT22;69576;51.902;-8.462;2023-07-29T11:04:28;24.00;52.80
80274;DHT22;69576;51.902;-8.462;2023-07-29T11:07:19;23.90;53.00
80274;DHT22;69576;51.902;-8.462;2023-07-29T11:12:45;23.50;53.10
80274;DHT22;69576;51.902;-8.462;2023-07-29T11:17:41;23.40;53.60
80274;DHT22;69576;51.902;-8.462;2023-07-29T11:20:08;23.40;53.60
80274;DHT22;69576;51.902;-8.462;2023-07-29T11:22:34;23.40;53.60
80274;DHT22;69576;51.902;-8.462;2023-07-29T11:25:00;23.30;53.70
80274;DHT22;69576;51.902;-8.462;2023-07-29T11:27:28;23.30;53.80
80274;DHT22;69576;51.902;-8.462;2023-07-29T11:30:02;23.20;53.50
80274;DHT22;69576;51.902;-8.462;2023-07-29T11:32:28;23.10;53.50
80274;DHT22;69576;51.902;-8.462;2023-07-29T11:34:56;23.10;53.90
80274;DHT22;69576;51.902;-8.462;2023-07-29T11:37:22;23.00;54.10
80274;DHT22;69576;51.902;-8.462;2023-07-29T11:39:48;23.00;54.00
80274;DHT22;69576;51.902;-8.462;2023-07-29T11:42:15;23.00;54.00
80274;DHT22;69576;51.902;-8.462;2023-07-29T11:44:42;23.00;54.00
80274;DHT22;69576;51.902;-8.462;2023-07-29T11:47:14;23.00;54.00
80274;DHT22;69576;51.902;-8.462;2023-07-29T11:49:41;23.00;53.90
80274;DHT22;69576;51.902;-8.462;2023-07-29T11:52:10;23.00;54.00
80274;DHT22;69576;51.902;-8.462;2023-07-29T11:54:39;23.00;54.00
80274;DHT22;69576;51.902;-8.462;2023-07-29T11:57:08;23.00;54.10
80274;DHT22;69576;51.902;-8.462;2023-07-29T11:59:37;22.90;54.10
80274;DHT22;69576;51.902;-8.462;2023-07-29T12:02:13;22.80;54.00
80274;DHT22;69576;51.902;-8.462;2023-07-29T12:04:41;22.70;53.60
80274;DHT22;69576;51.902;-8.462;2023-07-29T12:07:08;22.60;54.10
80274;DHT22;69576;51.902;-8.462;2023-07-29T12:09:35;22.60;54.40
80274;DHT22;69576;51.902;-8.462;2023-07-29T12:12:02;22.60;54.90
80274;DHT22;69576;51.902;-8.462;2023-07-29T12:14:29;22.70;55.00
80274;DHT22;69576;51.902;-8.462;2023-07-29T12:16:54;22.70;54.80
80274;DHT22;69576;51.902;-8.462;2023-07-29T12:19:20;22.70;54.60
80274;DHT22;69576;51.902;-8.462;2023-07-29T12:21:52;22.60;54.00
80274;DHT22;69576;51.902;-8.462;2023-07-29T12:24:18;22.60;54.00
80274;DHT22;69576;51.902;-8.462;2023-07-29T12:26:44;22.50;53.90
80274;DHT22;69576;51.902;-8.462;2023-07-29T12:29:16;22.50;54.20
80274;DHT22;69576;51.902;-8.462;2023-07-29T12:31:45;22.50;54.40
80274;DHT22;69576;51.902;-8.462;2023-07-29T12:34:20;22.50;54.50
80274;DHT22;69576;51.902;-8.462;2023-07-29T12:36:52;22.40;54.30
80274;DHT22;69576;51.902;-8.462;2023-07-29T12:39:27;22.40;54.00
80274;DHT22;69576;51.902;-8.462;2023-07-29T12:41:58;22.30;54.30
80274;DHT22;69576;51.902;-8.462;2023-07-29T12:44:29;22.40;54.60
80274;DHT22;69576;51.902;-8.462;2023-07-29T12:46:57;22.30;54.70
80274;DHT22;69576;51.902;-8.462;2023-07-29T12:49:23;22.40;54.90
80274;DHT22;69576;51.902;-8.462;2023-07-29T12:51:49;22.40;55.00
80274;DHT22;69576;51.902;-8.462;2023-07-29T12:54:14;22.40;55.00
80274;DHT22;69576;51.902;-8.462;2023-07-29T12:56:40;22.40;55.10
80274;DHT22;69576;51.902;-8.462;2023-07-29T12:59:08;22.50;55.20
80274;DHT22;69576;51.902;-8.462;2023-07-29T13:01:34;22.40;55.10
80274;DHT22;69576;51.902;-8.462;2023-07-29T13:04:02;22.30;54.70
80274;DHT22;69576;51.902;-8.462;2023-07-29T13:06:28;22.30;54.40
80274;DHT22;69576;51.902;-8.462;2023-07-29T13:08:53;22.30;54.70
80274;DHT22;69576;51.902;-8.462;2023-07-29T13:11:19;22.20;54.70
80274;DHT22;69576;51.902;-8.462;2023-07-29T13:13:45;22.20;54.10
80274;DHT22;69576;51.902;-8.462;2023-07-29T13:16:13;22.10;54.10
80274;DHT22;69576;51.902;-8.462;2023-07-29T13:18:39;22.10;53.90
80274;DHT22;69576;51.902;-8.462;2023-07-29T13:21:06;22.00;53.80
80274;DHT22;69576;51.902;-8.462;2023-07-29T13:23:34;21.90;53.70
80274;DHT22;69576;51.902;-8.462;2023-07-29T13:26:00;21.90;53.80
80274;DHT22;69576;51.902;-8.462;2023-07-29T13:28:26;21.80;53.60
80274;DHT22;69576;51.902;-8.462;2023-07-29T13:30:55;21.70;53.50
80274;DHT22;69576;51.902;-8.462;2023-07-29T13:33:22;21.70;53.40
80274;DHT22;69576;51.902;-8.462;2023-07-29T13:35:50;21.70;53.70
80274;DHT22;69576;51.902;-8.462;2023-07-29T13:38:16;21.60;53.90
80274;DHT22;69576;51.902;-8.462;2023-07-29T13:40:42;21.50;53.80
80274;DHT22;69576;51.902;-8.462;2023-07-29T13:43:08;21.50;53.80
80274;DHT22;69576;51.902;-8.462;2023-07-29T13:45:34;21.50;53.90
80274;DHT22;69576;51.902;-8.462;2023-07-29T13:48:00;21.50;54.50
80274;DHT22;69576;51.902;-8.462;2023-07-29T13:50:30;21.50;54.70
80274;DHT22;69576;51.902;-8.462;2023-07-29T13:53:01;21.60;54.50
80274;DHT22;69576;51.902;-8.462;2023-07-29T13:55:27;21.50;53.60
80274;DHT22;69576;51.902;-8.462;2023-07-29T13:57:53;21.50;53.80
80274;DHT22;69576;51.902;-8.462;2023-07-29T14:00:19;21.50;54.40
80274;DHT22;69576;51.902;-8.462;2023-07-29T14:02:48;21.50;54.70
80274;DHT22;69576;51.902;-8.462;2023-07-29T14:05:18;21.50;54.70
80274;DHT22;69576;51.902;-8.462;2023-07-29T14:07:46;21.50;54.50
80274;DHT22;69576;51.902;-8.462;2023-07-29T14:10:12;21.50;54.40
80274;DHT22;69576;51.902;-8.462;2023-07-29T14:12:40;21.50;54.20
80274;DHT22;69576;51.902;-8.462;2023-07-29T14:15:06;21.50;54.50
80274;DHT22;69576;51.902;-8.462;2023-07-29T14:17:32;21.50;54.80
80274;DHT22;69576;51.902;-8.462;2023-07-29T14:19:58;21.50;54.70
80274;DHT22;69576;51.902;-8.462;2023-07-29T14:22:28;21.50;54.80
80274;DHT22;69576;51.902;-8.462;2023-07-29T14:24:54;21.60;55.00
80274;DHT22;69576;51.902;-8.462;2023-07-29T14:27:20;21.60;55.30
80274;DHT22;69576;51.902;-8.462;2023-07-29T14:29:46;21.70;55.40
80274;DHT22;69576;51.902;-8.462;2023-07-29T14:32:14;21.70;55.40
80274;DHT22;69576;51.902;-8.462;2023-07-29T14:34:40;21.70;55.40
80274;DHT22;69576;51.902;-8.462;2023-07-29T14:37:05;21.70;55.40
80274;DHT22;69576;51.902;-8.462;2023-07-29T14:39:31;21.70;55.50
80274;DHT22;69576;51.902;-8.462;2023-07-29T14:41:59;21.70;55.60
80274;DHT22;69576;51.902;-8.462;2023-07-29T14:44:25;21.70;55.90
80274;DHT22;69576;51.902;-8.462;2023-07-29T14:46:51;21.70;56.00
80274;DHT22;69576;51.902;-8.462;2023-07-29T14:49:20;21.70;56.00
80274;DHT22;69576;51.902;-8.462;2023-07-29T14:51:46;21.70;56.00
80274;DHT22;69576;51.902;-8.462;2023-07-29T14:54:14;21.70;56.10
80274;DHT22;69576;51.902;-8.462;2023-07-29T14:56:39;21.60;56.00
80274;DHT22;69576;51.902;-8.462;2023-07-29T14:59:05;21.50;56.00
80274;DHT22;69576;51.902;-8.462;2023-07-29T15:01:31;21.50;55.90
80274;DHT22;69576;51.902;-8.462;2023-07-29T15:03:57;21.50;55.90
80274;DHT22;69576;51.902;-8.462;2023-07-29T15:06:23;21.40;55.90
80274;DHT22;69576;51.902;-8.462;2023-07-29T15:08:49;21.40;55.80
80274;DHT22;69576;51.902;-8.462;2023-07-29T15:11:15;21.40;55.70
80274;DHT22;69576;51.902;-8.462;2023-07-29T15:13:41;21.30;55.70
80274;DHT22;69576;51.902;-8.462;2023-07-29T15:16:07;21.30;55.70
80274;DHT22;69576;51.902;-8.462;2023-07-29T15:18:35;21.30;55.60
80274;DHT22;69576;51.902;-8.462;2023-07-29T15:21:01;21.30;55.40
80274;DHT22;69576;51.902;-8.462;2023-07-29T15:23:28;21.20;55.60
80274;DHT22;69576;51.902;-8.462;2023-07-29T15:25:54;21.20;55.70
80274;DHT22;69576;51.902;-8.462;2023-07-29T15:28:20;21.30;55.90
80274;DHT22;69576;51.902;-8.462;2023-07-29T15:30:46;21.20;55.60
80274;DHT22;69576;51.902;-8.462;2023-07-29T15:33:11;21.10;55.30
80274;DHT22;69576;51.902;-8.462;2023-07-29T15:35:40;21.10;55.40
80274;DHT22;69576;51.902;-8.462;2023-07-29T15:38:06;21.10;55.70
80274;DHT22;69576;51.902;-8.462;2023-07-29T15:40:32;21.10;55.90
80274;DHT22;69576;51.902;-8.462;2023-07-29T15:42:58;21.10;56.10